createdAt,value
2022-10-01T00:02:08.294Z,97653.15
2022-10-01T00:04:40.056Z,97652.23
2022-10-01T00:07:11.051Z,97656.42
2022-10-01T00:09:39.012Z,97652.96
2022-10-01T00:12:06.996Z,97651.79
2022-10-01T00:14:35.900Z,97646.55
2022-10-01T00:17:03.739Z,97636.77
2022-10-01T00:19:31.656Z,97631.45
2022-10-01T00:21:59.463Z,97635.54
2022-10-01T00:24:27.375Z,97640.16
2022-10-01T00:26:55.187Z,97639.71
2022-10-01T00:29:22.991Z,97642.29
2022-10-01T00:31:51.116Z,97644.98
2022-10-01T00:34:18.990Z,97647.69
2022-10-01T00:36:47.228Z,97647.63
2022-10-01T00:39:15.132Z,97649.45
2022-10-01T00:41:43.075Z,97652.36
2022-10-01T00:44:37.270Z,97654.95
2022-10-01T00:47:31.875Z,97657.44
2022-10-01T00:50:28.451Z,97653.63
2022-10-01T00:53:01.347Z,97650.08
2022-10-01T00:55:34.577Z,97647.91
2022-10-01T00:58:04.345Z,97651.20
2022-10-01T01:00:32.731Z,97645.79
2022-10-01T01:03:00.604Z,97644.84
2022-10-01T01:05:28.586Z,97654.73
2022-10-01T01:07:58.452Z,97650.04
2022-10-01T01:10:50.245Z,97651.21
2022-10-01T01:13:34.548Z,97647.98
2022-10-01T01:16:16.183Z,97644.80
2022-10-01T01:18:53.126Z,97647.08
2022-10-01T01:21:36.992Z,97648.20
2022-10-01T01:24:39.409Z,97653.20
2022-10-01T01:27:46.402Z,97657.95
2022-10-01T01:30:17.043Z,97657.45
2022-10-01T01:32:55.709Z,97655.08
2022-10-01T01:35:38.211Z,97651.02
2022-10-01T01:38:11.572Z,97644.41
2022-10-01T01:40:43.072Z,97645.99
2022-10-01T01:43:20.647Z,97649.21
2022-10-01T01:45:50.856Z,97648.05
2022-10-01T01:48:18.729Z,97645.89
2022-10-01T01:50:53.068Z,97650.67
2022-10-01T01:53:21.306Z,97655.02
2022-10-01T01:55:50.351Z,97654.63
2022-10-01T01:58:20.771Z,97657.16
2022-10-01T02:00:54.361Z,97662.98
2022-10-01T02:03:25.927Z,97664.75
2022-10-01T02:06:17.516Z,97665.15
2022-10-01T02:09:00.894Z,97669.87
2022-10-01T02:11:38.226Z,97670.58
2022-10-01T02:14:21.151Z,97675.35
2022-10-01T02:17:01.636Z,97674.65
2022-10-01T02:19:52.651Z,97676.23
2022-10-01T02:22:36.411Z,97676.91
2022-10-01T02:25:06.402Z,97674.14
2022-10-01T02:27:41.266Z,97675.59
2022-10-01T02:30:11.344Z,97676.44
2022-10-01T02:32:42.942Z,97674.02
2022-10-01T02:35:15.610Z,97675.98
2022-10-01T02:37:48.021Z,97673.64
2022-10-01T02:40:20.461Z,97673.73
2022-10-01T02:43:02.378Z,97671.83
2022-10-01T02:45:35.224Z,97673.66
2022-10-01T02:48:07.287Z,97674.61
2022-10-01T02:50:51.337Z,97674.55
2022-10-01T02:53:30.902Z,97674.33
2022-10-01T02:56:01.252Z,97676.76
2022-10-01T02:58:29.819Z,97683.70
2022-10-01T03:00:57.699Z,97684.56
2022-10-01T03:03:26.362Z,97685.61
2022-10-01T03:05:54.327Z,97683.09
2022-10-01T03:08:22.253Z,97681.95
2022-10-01T03:10:50.657Z,97682.73
2022-10-01T03:13:19.916Z,97680.38
2022-10-01T03:15:47.786Z,97684.45
2022-10-01T03:18:15.614Z,97682.93
2022-10-01T03:20:43.587Z,97683.56
2022-10-01T03:23:11.434Z,97679.68
2022-10-01T03:25:39.361Z,97675.21
2022-10-01T03:28:07.293Z,97676.16
2022-10-01T03:30:35.179Z,97676.26
2022-10-01T03:33:03.047Z,97669.46
2022-10-01T03:35:32.429Z,97671.08
2022-10-01T03:38:00.652Z,97667.91
2022-10-01T03:40:29.082Z,97665.08
2022-10-01T03:42:56.917Z,97667.64
2022-10-01T03:45:24.800Z,97666.69
2022-10-01T03:47:53.405Z,97668.00
2022-10-01T03:50:22.076Z,97663.24
2022-10-01T03:52:51.454Z,97665.55
2022-10-01T03:55:19.416Z,97665.25
2022-10-01T03:57:47.533Z,97656.48
2022-10-01T04:00:15.498Z,97657.79
2022-10-01T04:02:43.467Z,97654.98
2022-10-01T04:05:12.523Z,97647.65
2022-10-01T04:07:42.739Z,97645.42
2022-10-01T04:10:10.569Z,97643.96
2022-10-01T04:12:38.476Z,97644.85
2022-10-01T04:15:06.625Z,97635.06
2022-10-01T04:17:34.473Z,97631.10
2022-10-01T04:20:02.361Z,97629.42
2022-10-01T04:22:30.343Z,97633.70
2022-10-01T04:24:58.180Z,97637.05
2022-10-01T04:27:26.375Z,97640.16
2022-10-01T04:29:54.297Z,97636.05
2022-10-01T04:32:22.307Z,97634.88
2022-10-01T04:34:53.006Z,97629.84
2022-10-01T04:37:22.668Z,97628.17
2022-10-01T04:39:51.005Z,97631.06
2022-10-01T04:42:19.264Z,97627.30
2022-10-01T04:44:47.888Z,97626.58
2022-10-01T04:47:15.854Z,97624.78
2022-10-01T04:49:43.691Z,97624.00
2022-10-01T04:52:11.524Z,97621.69
2022-10-01T04:54:39.372Z,97624.08
2022-10-01T04:57:07.249Z,97623.52
2022-10-01T04:59:35.092Z,97625.16
2022-10-01T05:02:02.975Z,97625.49
2022-10-01T05:04:30.950Z,97621.55
2022-10-01T05:06:58.865Z,97621.36
2022-10-01T05:09:26.739Z,97625.33
2022-10-01T05:11:54.631Z,97627.14
2022-10-01T05:14:22.565Z,97633.89
2022-10-01T05:16:50.498Z,97635.64
2022-10-01T05:19:18.498Z,97631.68
2022-10-01T05:21:46.323Z,97629.14
2022-10-01T05:24:15.403Z,97629.84
2022-10-01T05:26:43.234Z,97628.32
2022-10-01T05:29:11.434Z,97626.33
2022-10-01T05:31:44.517Z,97625.27
2022-10-01T05:34:12.868Z,97617.69
2022-10-01T05:36:40.725Z,97628.19
2022-10-01T05:39:08.617Z,97630.23
2022-10-01T05:41:36.751Z,97631.77
2022-10-01T05:44:06.318Z,97632.11
2022-10-01T05:46:34.300Z,97634.86
2022-10-01T05:49:02.206Z,97635.41
2022-10-01T05:51:30.275Z,97637.62
2022-10-01T05:54:01.879Z,97639.19
2022-10-01T05:56:29.794Z,97635.14
2022-10-01T05:58:57.660Z,97634.50
2022-10-01T06:01:25.567Z,97634.21
2022-10-01T06:03:53.513Z,97621.59
2022-10-01T06:06:23.164Z,97618.67
2022-10-01T06:08:51.145Z,97623.57
2022-10-01T06:11:22.128Z,97622.77
2022-10-01T06:13:51.006Z,97622.02
2022-10-01T06:16:21.035Z,97623.14
2022-10-01T06:18:49.760Z,97630.55
2022-10-01T06:21:17.636Z,97633.62
2022-10-01T06:23:45.982Z,97630.98
2022-10-01T06:26:13.869Z,97627.66
2022-10-01T06:28:41.731Z,97627.17
2022-10-01T06:31:09.798Z,97624.78
2022-10-01T06:33:37.806Z,97622.13
2022-10-01T06:36:05.924Z,97618.99
2022-10-01T06:38:33.888Z,97617.44
2022-10-01T06:41:03.902Z,97615.38
2022-10-01T06:43:33.006Z,97611.89
2022-10-01T06:46:03.110Z,97617.81
2022-10-01T06:48:32.559Z,97621.69
2022-10-01T06:51:00.437Z,97622.11
2022-10-01T06:53:29.075Z,97619.28
2022-10-01T06:55:57.495Z,97617.55
2022-10-01T06:58:28.448Z,97620.67
2022-10-01T07:01:02.110Z,97619.56
2022-10-01T07:03:31.271Z,97621.45
2022-10-01T07:06:04.423Z,97619.70
2022-10-01T07:08:33.421Z,97619.05
2022-10-01T07:11:03.059Z,97611.15
2022-10-01T07:13:31.064Z,97611.95
2022-10-01T07:15:58.943Z,97607.99
2022-10-01T07:18:27.127Z,97602.34
2022-10-01T07:20:57.619Z,97602.63
2022-10-01T07:23:25.713Z,97603.78
2022-10-01T07:25:53.603Z,97600.78
2022-10-01T07:28:24.120Z,97600.00
2022-10-01T07:31:06.686Z,97600.23
2022-10-01T07:33:34.556Z,97596.57
2022-10-01T07:36:05.090Z,97595.98
2022-10-01T07:38:33.992Z,97597.83
2022-10-01T07:41:03.555Z,97597.74
2022-10-01T07:43:35.275Z,97591.23
2022-10-01T07:46:05.787Z,97587.86
2022-10-01T07:48:33.682Z,97587.91
2022-10-01T07:51:01.636Z,97587.94
2022-10-01T07:53:29.526Z,97587.45
2022-10-01T07:56:01.219Z,97586.59
2022-10-01T07:58:29.097Z,97589.52
2022-10-01T08:00:58.855Z,97592.76
2022-10-01T08:03:27.361Z,97592.86
2022-10-01T08:05:55.241Z,97591.88
2022-10-01T08:08:23.288Z,97590.42
2022-10-01T08:10:51.331Z,97586.98
2022-10-01T08:13:20.576Z,97587.96
2022-10-01T08:15:53.714Z,97585.83
2022-10-01T08:18:23.673Z,97580.52
2022-10-01T08:20:52.747Z,97583.96
2022-10-01T08:23:20.803Z,97577.60
2022-10-01T08:25:48.647Z,97578.61
2022-10-01T08:28:16.623Z,97578.00
2022-10-01T08:30:44.774Z,97577.30
2022-10-01T08:33:13.568Z,97573.71
2022-10-01T08:35:43.653Z,97574.49
2022-10-01T08:38:13.039Z,97573.77
2022-10-01T08:40:48.311Z,97574.55
2022-10-01T08:43:33.929Z,97571.05
2022-10-01T08:46:06.873Z,97570.38
2022-10-01T08:48:47.747Z,97569.05
2022-10-01T08:51:34.209Z,97564.84
2022-10-01T08:54:29.032Z,97561.17
2022-10-01T08:57:00.746Z,97555.47
2022-10-01T08:59:47.434Z,97557.14
2022-10-01T09:02:20.080Z,97549.23
2022-10-01T09:04:51.117Z,97549.80
2022-10-01T09:07:50.632Z,97545.55
2022-10-01T09:13:50.415Z,97548.95
2022-10-01T09:16:32.186Z,97544.76
2022-10-01T09:19:40.759Z,97534.30
2022-10-01T09:22:18.412Z,97525.13
2022-10-01T09:25:07.470Z,97522.90
2022-10-01T09:27:38.848Z,97518.58
2022-10-01T09:30:18.429Z,97519.52
2022-10-01T09:32:51.497Z,97523.48
2022-10-01T09:35:44.384Z,97531.99
2022-10-01T09:38:21.488Z,97534.64
2022-10-01T09:40:55.443Z,97530.18
2022-10-01T09:43:32.715Z,97528.61
2022-10-01T09:46:04.684Z,97528.95
2022-10-01T09:48:41.952Z,97530.12
2022-10-01T09:51:40.039Z,97533.17
2022-10-01T09:54:23.707Z,97529.43
2022-10-01T09:57:00.723Z,97528.58
2022-10-01T10:00:04.778Z,97521.96
2022-10-01T10:02:39.190Z,97523.22
2022-10-01T10:05:27.976Z,97521.02
2022-10-01T10:08:02.284Z,97519.95
2022-10-01T10:10:35.882Z,97517.68
2022-10-01T10:13:08.042Z,97511.77
2022-10-01T10:15:36.485Z,97509.26
2022-10-01T10:18:11.664Z,97508.98
2022-10-01T10:20:44.043Z,97509.74
2022-10-01T10:23:23.174Z,97511.90
2022-10-01T10:26:44.774Z,97502.67
2022-10-01T10:29:27.733Z,97492.60
2022-10-01T10:31:55.701Z,97490.10
2022-10-01T10:34:42.324Z,97481.13
2022-10-01T10:37:19.293Z,97478.77
2022-10-01T10:39:54.098Z,97475.64
2022-10-01T10:42:25.327Z,97465.31
2022-10-01T10:44:57.140Z,97462.64
2022-10-01T10:47:28.469Z,97453.66
2022-10-01T10:50:00.903Z,97450.17
2022-10-01T10:52:36.494Z,97441.59
2022-10-01T10:55:26.998Z,97438.30
2022-10-01T10:57:57.784Z,97434.75
2022-10-01T11:00:26.498Z,97427.56
2022-10-01T11:02:59.269Z,97423.95
2022-10-01T11:05:35.295Z,97413.42
2022-10-01T11:08:05.454Z,97403.48
2022-10-01T11:10:36.682Z,97399.86
2022-10-01T11:13:33.586Z,97400.02
2022-10-01T11:16:24.426Z,97397.85
2022-10-01T11:18:58.550Z,97390.34
2022-10-01T11:21:41.880Z,97381.73
2022-10-01T11:24:54.371Z,97379.08
2022-10-01T11:27:37.505Z,97374.06
2022-10-01T11:30:26.575Z,97365.42
2022-10-01T11:33:26.416Z,97366.54
2022-10-01T11:36:03.111Z,97365.75
2022-10-01T11:38:45.844Z,97365.34
2022-10-01T11:41:31.956Z,97358.23
2022-10-01T11:44:22.222Z,97350.86
2022-10-01T11:46:59.230Z,97346.89
2022-10-01T11:49:42.078Z,97338.48
2022-10-01T11:52:09.873Z,97333.25
2022-10-01T11:54:54.258Z,97329.37
2022-10-01T11:57:45.317Z,97331.02
2022-10-01T12:00:14.366Z,97329.17
2022-10-01T12:02:58.777Z,97329.63
2022-10-01T12:05:31.539Z,97329.50
2022-10-01T12:08:12.637Z,97326.48
2022-10-01T12:10:50.984Z,97322.67
2022-10-01T12:13:28.032Z,97320.23
2022-10-01T12:16:08.794Z,97323.05
2022-10-01T12:18:51.960Z,97316.73
2022-10-01T12:21:26.643Z,97308.02
2022-10-01T12:24:02.854Z,97303.56
2022-10-01T12:26:43.481Z,97300.60
2022-10-01T12:29:31.074Z,97302.70
2022-10-01T12:32:03.513Z,97302.42
2022-10-01T12:34:53.972Z,97299.30
2022-10-01T12:37:44.894Z,97294.69
2022-10-01T12:40:47.099Z,97289.42
2022-10-01T12:43:31.626Z,97291.27
2022-10-01T12:46:14.772Z,97287.71
2022-10-01T12:49:04.254Z,97286.64
2022-10-01T12:51:45.163Z,97278.67
2022-10-01T12:54:19.104Z,97271.54
2022-10-01T12:57:20.022Z,97273.34
2022-10-01T13:00:05.274Z,97273.27
2022-10-01T13:03:21.764Z,97278.20
2022-10-01T13:05:58.795Z,97269.52
2022-10-01T13:08:43.159Z,97269.99
2022-10-01T13:11:40.597Z,97264.46
2022-10-01T13:14:17.018Z,97262.77
2022-10-01T13:16:49.987Z,97260.09
2022-10-01T13:19:40.544Z,97263.56
2022-10-01T13:22:38.409Z,97259.80
2022-10-01T13:25:39.957Z,97257.54
2022-10-01T13:28:32.259Z,97252.64
2022-10-01T13:31:10.203Z,97258.01
2022-10-01T13:33:38.185Z,97257.00
2022-10-01T13:36:08.330Z,97257.09
2022-10-01T13:38:42.866Z,97248.73
2022-10-01T13:41:28.746Z,97247.60
2022-10-01T13:44:18.716Z,97243.05
2022-10-01T13:47:03.499Z,97242.41
2022-10-01T13:49:32.247Z,97241.57
2022-10-01T13:52:03.139Z,97243.11
2022-10-01T13:54:50.206Z,97239.61
2022-10-01T13:57:34.278Z,97236.69
2022-10-01T14:00:08.492Z,97231.61
2022-10-01T14:02:38.381Z,97231.85
2022-10-01T14:05:18.373Z,97222.77
2022-10-01T14:07:50.344Z,97223.81
2022-10-01T14:10:19.529Z,97224.29
2022-10-01T14:13:07.246Z,97232.23
2022-10-01T14:16:00.324Z,97221.04
2022-10-01T14:18:42.954Z,97218.90
2022-10-01T14:21:16.513Z,97218.89
2022-10-01T14:24:01.444Z,97222.27
2022-10-01T14:26:34.741Z,97216.16
2022-10-01T14:29:23.723Z,97218.83
2022-10-01T14:32:10.444Z,97218.27
2022-10-01T14:35:19.587Z,97211.36
2022-10-01T14:37:47.653Z,97207.73
2022-10-01T14:40:18.385Z,97204.90
2022-10-01T14:43:05.629Z,97202.12
2022-10-01T14:45:33.683Z,97196.47
2022-10-01T14:48:07.059Z,97196.74
2022-10-01T14:50:37.747Z,97187.55
2022-10-01T14:53:07.062Z,97187.36
2022-10-01T14:55:35.924Z,97180.69
2022-10-01T14:58:05.280Z,97172.90
2022-10-01T15:00:34.955Z,97172.73
2022-10-01T15:03:17.918Z,97173.23
2022-10-01T15:05:49.175Z,97170.48
2022-10-01T15:08:44.862Z,97172.59
2022-10-01T15:11:34.376Z,97168.14
2022-10-01T15:14:08.381Z,97166.62
2022-10-01T15:16:37.501Z,97162.06
2022-10-01T15:19:19.498Z,97166.63
2022-10-01T15:21:57.089Z,97168.90
2022-10-01T15:24:57.973Z,97165.54
2022-10-01T15:27:26.208Z,97167.30
2022-10-01T15:29:58.768Z,97157.59
2022-10-01T15:32:28.445Z,97150.75
2022-10-01T15:35:00.143Z,97153.96
2022-10-01T15:37:36.877Z,97152.52
2022-10-01T15:40:10.359Z,97151.59
2022-10-01T15:42:38.670Z,97144.30
2022-10-01T15:45:06.680Z,97148.73
2022-10-01T15:47:52.460Z,97150.60
2022-10-01T15:50:27.201Z,97150.10
2022-10-01T15:53:16.670Z,97153.56
2022-10-01T15:55:47.893Z,97149.40
2022-10-01T15:58:30.476Z,97151.00
2022-10-01T16:01:22.707Z,97153.21
2022-10-01T16:04:07.010Z,97149.98
2022-10-01T16:06:44.060Z,97150.63
2022-10-01T16:09:15.821Z,97148.30
2022-10-01T16:12:04.167Z,97146.05
2022-10-01T16:14:32.418Z,97142.20
2022-10-01T16:17:27.027Z,97140.38
2022-10-01T16:19:57.776Z,97139.35
2022-10-01T16:22:33.458Z,97143.08
2022-10-01T16:25:17.838Z,97141.74
2022-10-01T16:27:50.066Z,97139.85
2022-10-01T16:30:27.260Z,97136.48
2022-10-01T16:32:56.896Z,97135.70
2022-10-01T16:35:24.699Z,97143.30
2022-10-01T16:37:56.368Z,97143.16
2022-10-01T16:40:32.628Z,97134.34
2022-10-01T16:43:01.166Z,97139.88
2022-10-01T16:45:37.084Z,97138.89
2022-10-01T16:48:17.124Z,97133.64
2022-10-01T16:50:46.695Z,97133.40
2022-10-01T16:53:16.888Z,97131.23
2022-10-01T16:55:45.947Z,97125.69
2022-10-01T16:58:14.196Z,97122.14
2022-10-01T17:00:42.898Z,97121.82
2022-10-01T17:03:22.670Z,97120.03
2022-10-01T17:05:50.672Z,97115.23
2022-10-01T17:08:18.567Z,97112.86
2022-10-01T17:11:00.164Z,97114.80
2022-10-01T17:13:32.984Z,97114.57
2022-10-01T17:16:02.032Z,97092.06
2022-10-01T17:18:30.128Z,97107.33
2022-10-01T17:20:59.838Z,97103.04
2022-10-01T17:23:27.829Z,97100.23
2022-10-01T17:25:55.827Z,97095.92
2022-10-01T17:28:24.785Z,97090.88
2022-10-01T17:30:53.059Z,97090.36
2022-10-01T17:33:20.973Z,97095.79
2022-10-01T17:35:53.591Z,97095.02
2022-10-01T17:38:23.162Z,97090.23
2022-10-01T17:40:56.340Z,97087.52
2022-10-01T17:43:25.294Z,97088.70
2022-10-01T17:45:58.999Z,97085.80
2022-10-01T17:48:28.407Z,97077.87
2022-10-01T17:51:09.557Z,97077.20
2022-10-01T17:53:42.284Z,97073.86
2022-10-01T17:56:16.183Z,97075.23
2022-10-01T17:58:45.914Z,97079.49
2022-10-01T18:01:20.589Z,97076.72
2022-10-01T18:03:55.090Z,97065.99
2022-10-01T18:06:25.751Z,97069.20
2022-10-01T18:08:55.926Z,97070.52
2022-10-01T18:11:28.403Z,97071.95
2022-10-01T18:13:57.260Z,97072.20
2022-10-01T18:16:26.675Z,97074.10
2022-10-01T18:21:49.027Z,97075.61
2022-10-01T18:24:18.059Z,97077.91
2022-10-01T18:26:48.262Z,97079.39
2022-10-01T18:29:20.223Z,97080.69
2022-10-01T18:31:52.804Z,97093.86
2022-10-01T18:34:29.203Z,97111.20
2022-10-01T18:37:26.779Z,97123.16
2022-10-01T18:40:10.740Z,97131.02
2022-10-01T18:42:50.336Z,97145.88
2022-10-01T18:45:41.842Z,97152.71
2022-10-01T18:48:42.923Z,97154.58
2022-10-01T18:51:35.346Z,97163.34
2022-10-01T18:54:06.713Z,97167.40
2022-10-01T18:56:38.288Z,97173.27
2022-10-01T18:59:14.625Z,97170.08
2022-10-01T19:01:58.528Z,97172.42
2022-10-01T19:05:11.033Z,97175.30
2022-10-01T19:08:01.384Z,97176.09
2022-10-01T19:10:40.146Z,97177.80
2022-10-01T19:13:16.014Z,97174.17
2022-10-01T19:15:54.323Z,97173.27
2022-10-01T19:18:50.933Z,97177.39
2022-10-01T19:21:25.127Z,97182.06
2022-10-01T19:23:55.850Z,97178.23
2022-10-01T19:26:52.290Z,97178.15
2022-10-01T19:29:45.732Z,97191.59
2022-10-01T19:32:20.094Z,97188.02
2022-10-01T19:35:14.083Z,97197.33
2022-10-01T19:37:49.340Z,97192.76
2022-10-01T19:40:41.814Z,97196.30
2022-10-01T19:43:31.976Z,97199.70
2022-10-01T19:46:20.800Z,97202.88
2022-10-01T19:49:13.625Z,97210.23
2022-10-01T19:51:44.834Z,97208.73
2022-10-01T19:54:20.161Z,97217.88
2022-10-01T19:56:53.153Z,97222.02
2022-10-01T19:59:21.633Z,97224.56
2022-10-01T20:01:55.492Z,97230.08
2022-10-01T20:04:30.569Z,97231.53
2022-10-01T20:07:10.083Z,97227.52
2022-10-01T20:10:10.116Z,97230.52
2022-10-01T20:13:23.219Z,97227.27
2022-10-01T20:16:32.953Z,97226.20
2022-10-01T20:19:29.843Z,97232.00
2022-10-01T20:22:11.706Z,97228.89
2022-10-01T20:24:59.032Z,97231.13
2022-10-01T20:27:39.060Z,97227.96
2022-10-01T20:30:11.134Z,97224.11
2022-10-01T20:32:51.577Z,97225.00
2022-10-01T20:35:31.448Z,97232.73
2022-10-01T20:38:02.362Z,97234.66
2022-10-01T20:40:40.226Z,97238.23
2022-10-01T20:43:30.713Z,97239.02
2022-10-01T20:46:03.292Z,97238.52
2022-10-01T20:48:37.861Z,97238.32
2022-10-01T20:51:09.779Z,97239.33
2022-10-01T20:53:50.533Z,97241.84
2022-10-01T20:56:28.649Z,97244.21
2022-10-01T20:59:03.950Z,97243.08
2022-10-01T21:01:36.269Z,97241.33
2022-10-01T21:04:13.468Z,97240.89
2022-10-01T21:06:46.630Z,97242.48
2022-10-01T21:09:41.001Z,97238.27
2022-10-01T21:12:35.126Z,97239.16
2022-10-01T21:15:04.366Z,97244.13
2022-10-01T21:17:53.673Z,97243.84
2022-10-01T21:20:40.498Z,97252.16
2022-10-01T21:23:53.762Z,97253.11
2022-10-01T21:26:35.767Z,97256.35
2022-10-01T21:29:29.468Z,97261.33
2022-10-01T21:32:24.975Z,97266.90
2022-10-01T21:35:11.712Z,97261.06
2022-10-01T21:37:55.110Z,97259.06
2022-10-01T21:40:25.681Z,97264.46
2022-10-01T21:43:10.515Z,97260.48
2022-10-01T21:46:13.646Z,97264.17
2022-10-01T21:48:47.570Z,97263.83
2022-10-01T21:51:18.669Z,97261.04
2022-10-01T21:54:09.480Z,97267.85
2022-10-01T21:56:46.077Z,97268.45
2022-10-01T21:59:17.037Z,97267.59
2022-10-01T22:02:10.095Z,97266.95
2022-10-01T22:04:46.557Z,97270.48
2022-10-01T22:07:25.158Z,97273.13
2022-10-01T22:10:05.921Z,97268.63
2022-10-01T22:12:38.667Z,97268.94
2022-10-01T22:15:39.730Z,97269.25
2022-10-01T22:18:15.037Z,97271.74
2022-10-01T22:20:45.285Z,97274.33
2022-10-01T22:23:18.002Z,97271.92
2022-10-01T22:25:54.973Z,97276.98
2022-10-01T22:28:36.527Z,97277.21
2022-10-01T22:31:06.749Z,97277.69
2022-10-01T22:33:43.220Z,97272.91
2022-10-01T22:36:13.949Z,97276.86
2022-10-01T22:38:54.298Z,97277.72
2022-10-01T22:41:28.325Z,97278.12
2022-10-01T22:43:56.442Z,97271.71
2022-10-01T22:46:53.823Z,97276.63
2022-10-01T22:49:24.728Z,97284.55
2022-10-01T22:52:13.684Z,97285.73
2022-10-01T22:55:18.795Z,97289.38
2022-10-01T22:57:52.371Z,97292.45
2022-10-01T23:00:21.447Z,97292.13
2022-10-01T23:03:13.473Z,97291.44
2022-10-01T23:05:47.092Z,97293.59
2022-10-01T23:08:35.955Z,97294.53
2022-10-01T23:11:11.814Z,97300.85
2022-10-01T23:14:08.771Z,97303.38
2022-10-01T23:16:42.485Z,97300.02
2022-10-01T23:19:36.001Z,97302.78
2022-10-01T23:22:26.108Z,97302.14
2022-10-01T23:25:06.262Z,97304.54
2022-10-01T23:28:01.643Z,97307.92
2022-10-01T23:31:02.059Z,97311.71
2022-10-01T23:33:49.769Z,97316.34
2022-10-01T23:36:31.388Z,97319.10
2022-10-01T23:39:36.926Z,97320.61
2022-10-01T23:42:28.030Z,97322.58
2022-10-01T23:45:23.716Z,97318.75
2022-10-01T23:48:01.759Z,97325.09
2022-10-01T23:51:02.193Z,97328.61
2022-10-01T23:53:59.182Z,97327.59
2022-10-01T23:56:48.859Z,97331.03
2022-10-01T23:59:31.986Z,97333.91
